sensor_id;sensor_type;location;lat;lon;timestamp;P1;durP1;ratioP1;P2;durP2;ratioP2
42760;SDS011;31672;47.638;19.026;2023-01-09T00:04:57;31.53;;;15.20;;
42760;SDS011;31672;47.638;19.026;2023-01-09T00:10:00;29.37;;;14.60;;
42760;SDS011;31672;47.638;19.026;2023-01-09T00:15:03;28.00;;;14.33;;
42760;SDS011;31672;47.638;19.026;2023-01-09T00:20:08;27.63;;;13.73;;
42760;SDS011;31672;47.638;19.026;2023-01-09T00:25:13;28.10;;;13.60;;
42760;SDS011;31672;47.638;19.026;2023-01-09T00:30:16;29.70;;;14.83;;
42760;SDS011;31672;47.638;19.026;2023-01-09T00:35:19;31.53;;;13.17;;
42760;SDS011;31672;47.638;19.026;2023-01-09T00:40:26;30.13;;;13.33;;
42760;SDS011;31672;47.638;19.026;2023-01-09T00:45:30;25.77;;;13.97;;
42760;SDS011;31672;47.638;19.026;2023-01-09T00:50:33;28.73;;;12.80;;
42760;SDS011;31672;47.638;19.026;2023-01-09T00:55:37;22.67;;;11.10;;
42760;SDS011;31672;47.638;19.026;2023-01-09T01:00:41;23.80;;;12.13;;
42760;SDS011;31672;47.638;19.026;2023-01-09T01:05:44;26.77;;;12.77;;
42760;SDS011;31672;47.638;19.026;2023-01-09T01:11:06;35.10;;;15.20;;
42760;SDS011;31672;47.638;19.026;2023-01-09T01:16:12;25.30;;;12.77;;
42760;SDS011;31672;47.638;19.026;2023-01-09T01:21:15;24.37;;;11.10;;
42760;SDS011;31672;47.638;19.026;2023-01-09T01:26:19;23.23;;;12.23;;
42760;SDS011;31672;47.638;19.026;2023-01-09T01:31:22;26.03;;;13.10;;
42760;SDS011;31672;47.638;19.026;2023-01-09T01:36:24;19.47;;;11.60;;
42760;SDS011;31672;47.638;19.026;2023-01-09T01:41:27;27.57;;;13.77;;
42760;SDS011;31672;47.638;19.026;2023-01-09T01:46:31;25.70;;;11.97;;
42760;SDS011;31672;47.638;19.026;2023-01-09T01:51:36;29.30;;;13.83;;
42760;SDS011;31672;47.638;19.026;2023-01-09T01:56:45;22.97;;;12.30;;
42760;SDS011;31672;47.638;19.026;2023-01-09T02:01:55;20.70;;;12.13;;
42760;SDS011;31672;47.638;19.026;2023-01-09T02:07:03;23.00;;;12.33;;
42760;SDS011;31672;47.638;19.026;2023-01-09T02:12:21;19.97;;;10.37;;
42760;SDS011;31672;47.638;19.026;2023-01-09T02:23:05;26.67;;;14.30;;
42760;SDS011;31672;47.638;19.026;2023-01-09T02:39:34;21.90;;;12.07;;
42760;SDS011;31672;47.638;19.026;2023-01-09T02:44:42;20.00;;;9.90;;
42760;SDS011;31672;47.638;19.026;2023-01-09T02:49:46;18.10;;;10.60;;
42760;SDS011;31672;47.638;19.026;2023-01-09T02:55:02;19.80;;;10.47;;
42760;SDS011;31672;47.638;19.026;2023-01-09T03:11:07;23.67;;;12.23;;
42760;SDS011;31672;47.638;19.026;2023-01-09T03:16:20;17.47;;;10.33;;
42760;SDS011;31672;47.638;19.026;2023-01-09T03:21:30;22.47;;;12.27;;
42760;SDS011;31672;47.638;19.026;2023-01-09T03:26:34;24.50;;;11.33;;
42760;SDS011;31672;47.638;19.026;2023-01-09T03:31:38;19.07;;;9.80;;
42760;SDS011;31672;47.638;19.026;2023-01-09T03:36:41;17.57;;;9.27;;
42760;SDS011;31672;47.638;19.026;2023-01-09T03:41:44;21.83;;;11.53;;
42760;SDS011;31672;47.638;19.026;2023-01-09T03:46:46;21.50;;;12.40;;
42760;SDS011;31672;47.638;19.026;2023-01-09T03:51:51;21.90;;;9.97;;
42760;SDS011;31672;47.638;19.026;2023-01-09T03:56:54;21.73;;;10.23;;
42760;SDS011;31672;47.638;19.026;2023-01-09T04:01:57;18.87;;;9.70;;
42760;SDS011;31672;47.638;19.026;2023-01-09T04:07:03;18.43;;;9.97;;
42760;SDS011;31672;47.638;19.026;2023-01-09T04:12:06;17.10;;;9.27;;
42760;SDS011;31672;47.638;19.026;2023-01-09T04:17:09;18.57;;;9.87;;
42760;SDS011;31672;47.638;19.026;2023-01-09T04:22:12;17.10;;;9.57;;
42760;SDS011;31672;47.638;19.026;2023-01-09T04:27:15;21.10;;;10.93;;
42760;SDS011;31672;47.638;19.026;2023-01-09T04:32:18;25.33;;;10.87;;
42760;SDS011;31672;47.638;19.026;2023-01-09T04:37:22;15.63;;;9.10;;
42760;SDS011;31672;47.638;19.026;2023-01-09T04:42:25;14.57;;;7.87;;
42760;SDS011;31672;47.638;19.026;2023-01-09T04:47:28;22.63;;;11.80;;
42760;SDS011;31672;47.638;19.026;2023-01-09T04:52:32;21.10;;;10.60;;
42760;SDS011;31672;47.638;19.026;2023-01-09T04:57:35;16.97;;;9.03;;
42760;SDS011;31672;47.638;19.026;2023-01-09T05:02:39;16.07;;;8.47;;
42760;SDS011;31672;47.638;19.026;2023-01-09T05:07:43;19.20;;;8.80;;
42760;SDS011;31672;47.638;19.026;2023-01-09T05:12:46;20.23;;;10.67;;
42760;SDS011;31672;47.638;19.026;2023-01-09T05:17:49;24.23;;;12.20;;
42760;SDS011;31672;47.638;19.026;2023-01-09T05:22:51;18.33;;;10.50;;
42760;SDS011;31672;47.638;19.026;2023-01-09T05:27:54;25.33;;;12.70;;
42760;SDS011;31672;47.638;19.026;2023-01-09T05:32:58;25.90;;;12.43;;
42760;SDS011;31672;47.638;19.026;2023-01-09T05:38:00;26.30;;;13.13;;
42760;SDS011;31672;47.638;19.026;2023-01-09T05:43:03;23.00;;;12.33;;
42760;SDS011;31672;47.638;19.026;2023-01-09T05:48:06;20.13;;;10.47;;
42760;SDS011;31672;47.638;19.026;2023-01-09T05:53:09;24.63;;;12.03;;
42760;SDS011;31672;47.638;19.026;2023-01-09T05:58:12;20.43;;;10.93;;
42760;SDS011;31672;47.638;19.026;2023-01-09T06:03:15;22.17;;;11.47;;
42760;SDS011;31672;47.638;19.026;2023-01-09T06:08:18;25.30;;;13.83;;
42760;SDS011;31672;47.638;19.026;2023-01-09T06:13:21;34.83;;;15.37;;
42760;SDS011;31672;47.638;19.026;2023-01-09T06:18:24;28.60;;;13.67;;
42760;SDS011;31672;47.638;19.026;2023-01-09T06:23:27;17.87;;;10.27;;
42760;SDS011;31672;47.638;19.026;2023-01-09T06:28:30;27.83;;;14.03;;
42760;SDS011;31672;47.638;19.026;2023-01-09T06:33:33;25.53;;;13.77;;
42760;SDS011;31672;47.638;19.026;2023-01-09T06:38:37;22.97;;;12.13;;
42760;SDS011;31672;47.638;19.026;2023-01-09T06:43:40;29.33;;;13.97;;
42760;SDS011;31672;47.638;19.026;2023-01-09T06:48:42;23.23;;;12.87;;
42760;SDS011;31672;47.638;19.026;2023-01-09T06:53:45;31.60;;;16.10;;
42760;SDS011;31672;47.638;19.026;2023-01-09T06:58:48;24.30;;;13.53;;
42760;SDS011;31672;47.638;19.026;2023-01-09T07:03:51;43.30;;;19.23;;
42760;SDS011;31672;47.638;19.026;2023-01-09T07:08:54;28.47;;;14.10;;
42760;SDS011;31672;47.638;19.026;2023-01-09T07:13:58;23.13;;;13.40;;
42760;SDS011;31672;47.638;19.026;2023-01-09T07:19:01;22.57;;;12.30;;
42760;SDS011;31672;47.638;19.026;2023-01-09T07:24:04;23.77;;;12.33;;
42760;SDS011;31672;47.638;19.026;2023-01-09T07:29:07;18.50;;;11.07;;
42760;SDS011;31672;47.638;19.026;2023-01-09T07:34:10;22.57;;;10.60;;
42760;SDS011;31672;47.638;19.026;2023-01-09T07:39:13;17.80;;;10.83;;
42760;SDS011;31672;47.638;19.026;2023-01-09T07:44:16;17.67;;;10.07;;
42760;SDS011;31672;47.638;19.026;2023-01-09T07:49:19;15.80;;;9.53;;
42760;SDS011;31672;47.638;19.026;2023-01-09T07:54:22;24.40;;;13.90;;
42760;SDS011;31672;47.638;19.026;2023-01-09T07:59:25;22.47;;;11.83;;
42760;SDS011;31672;47.638;19.026;2023-01-09T08:04:30;22.10;;;11.90;;
42760;SDS011;31672;47.638;19.026;2023-01-09T08:09:33;20.00;;;11.07;;
42760;SDS011;31672;47.638;19.026;2023-01-09T08:14:36;16.73;;;10.67;;
42760;SDS011;31672;47.638;19.026;2023-01-09T08:19:39;32.97;;;16.70;;
42760;SDS011;31672;47.638;19.026;2023-01-09T08:24:44;23.43;;;14.03;;
42760;SDS011;31672;47.638;19.026;2023-01-09T08:29:47;21.60;;;11.73;;
42760;SDS011;31672;47.638;19.026;2023-01-09T08:34:51;24.63;;;14.23;;
42760;SDS011;31672;47.638;19.026;2023-01-09T08:39:54;21.33;;;11.07;;
42760;SDS011;31672;47.638;19.026;2023-01-09T08:44:57;16.67;;;9.80;;
42760;SDS011;31672;47.638;19.026;2023-01-09T08:50:18;17.50;;;9.52;;
42760;SDS011;31672;47.638;19.026;2023-01-09T08:55:21;16.57;;;9.83;;
42760;SDS011;31672;47.638;19.026;2023-01-09T09:00:25;15.23;;;8.87;;
42760;SDS011;31672;47.638;19.026;2023-01-09T09:05:29;13.80;;;8.40;;
42760;SDS011;31672;47.638;19.026;2023-01-09T09:10:33;15.93;;;8.67;;
42760;SDS011;31672;47.638;19.026;2023-01-09T09:15:37;16.93;;;9.20;;
42760;SDS011;31672;47.638;19.026;2023-01-09T09:20:40;22.23;;;10.77;;
42760;SDS011;31672;47.638;19.026;2023-01-09T09:25:43;16.97;;;9.23;;
42760;SDS011;31672;47.638;19.026;2023-01-09T09:30:46;15.20;;;8.30;;
42760;SDS011;31672;47.638;19.026;2023-01-09T09:35:49;16.53;;;9.97;;
42760;SDS011;31672;47.638;19.026;2023-01-09T09:57:16;25.13;;;14.60;;
42760;SDS011;31672;47.638;19.026;2023-01-09T10:07:36;18.63;;;10.07;;
42760;SDS011;31672;47.638;19.026;2023-01-09T10:12:45;24.77;;;11.73;;
42760;SDS011;31672;47.638;19.026;2023-01-09T10:23:52;20.50;;;11.20;;
42760;SDS011;31672;47.638;19.026;2023-01-09T10:34:56;23.23;;;11.73;;
42760;SDS011;31672;47.638;19.026;2023-01-09T10:40:41;23.03;;;12.13;;
42760;SDS011;31672;47.638;19.026;2023-01-09T10:46:11;19.50;;;11.70;;
42760;SDS011;31672;47.638;19.026;2023-01-09T10:52:10;20.03;;;12.30;;
42760;SDS011;31672;47.638;19.026;2023-01-09T10:57:14;22.23;;;12.53;;
42760;SDS011;31672;47.638;19.026;2023-01-09T11:02:42;19.20;;;11.30;;
42760;SDS011;31672;47.638;19.026;2023-01-09T11:07:57;26.43;;;15.57;;
42760;SDS011;31672;47.638;19.026;2023-01-09T11:13:36;17.47;;;10.23;;
42760;SDS011;31672;47.638;19.026;2023-01-09T11:18:58;17.30;;;9.83;;
42760;SDS011;31672;47.638;19.026;2023-01-09T11:29:38;20.47;;;11.23;;
42760;SDS011;31672;47.638;19.026;2023-01-09T11:34:44;18.53;;;11.03;;
42760;SDS011;31672;47.638;19.026;2023-01-09T11:39:47;20.93;;;11.50;;
42760;SDS011;31672;47.638;19.026;2023-01-09T11:44:55;23.93;;;13.63;;
42760;SDS011;31672;47.638;19.026;2023-01-09T11:50:07;20.40;;;10.97;;
42760;SDS011;31672;47.638;19.026;2023-01-09T11:55:19;24.47;;;13.17;;
42760;SDS011;31672;47.638;19.026;2023-01-09T12:00:29;26.17;;;14.47;;
42760;SDS011;31672;47.638;19.026;2023-01-09T12:28:39;23.67;;;13.57;;
42760;SDS011;31672;47.638;19.026;2023-01-09T12:56:57;26.20;;;14.20;;
42760;SDS011;31672;47.638;19.026;2023-01-09T13:07:21;37.37;;;18.47;;
42760;SDS011;31672;47.638;19.026;2023-01-09T13:12:32;33.07;;;16.10;;
42760;SDS011;31672;47.638;19.026;2023-01-09T13:29:28;23.07;;;13.17;;
42760;SDS011;31672;47.638;19.026;2023-01-09T13:34:37;24.07;;;14.23;;
42760;SDS011;31672;47.638;19.026;2023-01-09T13:39:41;43.43;;;19.27;;
42760;SDS011;31672;47.638;19.026;2023-01-09T13:44:44;45.37;;;19.03;;
42760;SDS011;31672;47.638;19.026;2023-01-09T14:15:51;48.53;;;22.47;;
42760;SDS011;31672;47.638;19.026;2023-01-09T14:21:09;46.53;;;20.83;;
42760;SDS011;31672;47.638;19.026;2023-01-09T14:26:24;46.40;;;22.17;;
42760;SDS011;31672;47.638;19.026;2023-01-09T14:31:44;28.57;;;16.67;;
42760;SDS011;31672;47.638;19.026;2023-01-09T14:36:47;41.97;;;19.93;;
42760;SDS011;31672;47.638;19.026;2023-01-09T14:41:50;32.50;;;17.50;;
42760;SDS011;31672;47.638;19.026;2023-01-09T14:47:17;30.33;;;15.10;;
42760;SDS011;31672;47.638;19.026;2023-01-09T14:52:45;40.73;;;19.43;;
42760;SDS011;31672;47.638;19.026;2023-01-09T14:58:10;41.00;;;19.87;;
42760;SDS011;31672;47.638;19.026;2023-01-09T15:03:27;68.33;;;30.40;;
42760;SDS011;31672;47.638;19.026;2023-01-09T15:08:43;54.77;;;23.57;;
42760;SDS011;31672;47.638;19.026;2023-01-09T15:13:49;46.37;;;21.60;;
42760;SDS011;31672;47.638;19.026;2023-01-09T15:18:55;46.87;;;21.43;;
42760;SDS011;31672;47.638;19.026;2023-01-09T15:24:21;40.92;;;22.27;;
42760;SDS011;31672;47.638;19.026;2023-01-09T15:29:31;40.83;;;19.87;;
42760;SDS011;31672;47.638;19.026;2023-01-09T15:34:33;39.83;;;19.83;;
42760;SDS011;31672;47.638;19.026;2023-01-09T15:39:38;52.00;;;22.80;;
42760;SDS011;31672;47.638;19.026;2023-01-09T15:44:42;63.07;;;25.90;;
42760;SDS011;31672;47.638;19.026;2023-01-09T15:49:49;56.43;;;25.50;;
42760;SDS011;31672;47.638;19.026;2023-01-09T15:54:53;49.73;;;25.43;;
42760;SDS011;31672;47.638;19.026;2023-01-09T15:59:58;69.13;;;32.93;;
42760;SDS011;31672;47.638;19.026;2023-01-09T16:05:59;53.13;;;27.83;;
42760;SDS011;31672;47.638;19.026;2023-01-09T16:11:19;70.83;;;31.30;;
42760;SDS011;31672;47.638;19.026;2023-01-09T16:16:29;63.27;;;27.90;;
42760;SDS011;31672;47.638;19.026;2023-01-09T16:21:35;60.70;;;25.70;;
42760;SDS011;31672;47.638;19.026;2023-01-09T16:26:39;43.63;;;21.93;;
42760;SDS011;31672;47.638;19.026;2023-01-09T16:31:42;41.90;;;20.90;;
42760;SDS011;31672;47.638;19.026;2023-01-09T16:36:45;48.43;;;21.77;;
42760;SDS011;31672;47.638;19.026;2023-01-09T16:41:48;54.57;;;24.40;;
42760;SDS011;31672;47.638;19.026;2023-01-09T16:47:10;43.33;;;19.73;;
42760;SDS011;31672;47.638;19.026;2023-01-09T16:52:16;51.67;;;21.77;;
42760;SDS011;31672;47.638;19.026;2023-01-09T16:57:20;50.63;;;21.63;;
42760;SDS011;31672;47.638;19.026;2023-01-09T17:02:23;54.30;;;22.23;;
42760;SDS011;31672;47.638;19.026;2023-01-09T17:07:26;52.80;;;21.03;;
42760;SDS011;31672;47.638;19.026;2023-01-09T17:12:32;52.90;;;21.17;;
42760;SDS011;31672;47.638;19.026;2023-01-09T17:17:35;47.90;;;22.30;;
42760;SDS011;31672;47.638;19.026;2023-01-09T17:22:38;52.20;;;22.20;;
42760;SDS011;31672;47.638;19.026;2023-01-09T17:27:41;34.37;;;18.07;;
42760;SDS011;31672;47.638;19.026;2023-01-09T17:33:02;43.78;;;20.98;;
42760;SDS011;31672;47.638;19.026;2023-01-09T17:38:08;43.07;;;19.67;;
42760;SDS011;31672;47.638;19.026;2023-01-09T17:43:15;43.03;;;19.23;;
42760;SDS011;31672;47.638;19.026;2023-01-09T17:48:20;47.57;;;20.70;;
42760;SDS011;31672;47.638;19.026;2023-01-09T17:53:23;39.53;;;17.40;;
42760;SDS011;31672;47.638;19.026;2023-01-09T17:58:27;55.87;;;21.07;;
42760;SDS011;31672;47.638;19.026;2023-01-09T18:03:31;61.73;;;24.80;;
42760;SDS011;31672;47.638;19.026;2023-01-09T18:08:35;58.70;;;26.00;;
42760;SDS011;31672;47.638;19.026;2023-01-09T18:13:39;66.33;;;26.77;;
42760;SDS011;31672;47.638;19.026;2023-01-09T18:18:43;65.80;;;23.37;;
42760;SDS011;31672;47.638;19.026;2023-01-09T18:23:48;54.63;;;19.93;;
42760;SDS011;31672;47.638;19.026;2023-01-09T18:28:53;41.27;;;17.27;;
42760;SDS011;31672;47.638;19.026;2023-01-09T18:34:00;48.37;;;18.10;;
42760;SDS011;31672;47.638;19.026;2023-01-09T18:39:06;36.93;;;15.83;;
42760;SDS011;31672;47.638;19.026;2023-01-09T18:44:09;35.83;;;15.10;;
42760;SDS011;31672;47.638;19.026;2023-01-09T18:49:13;30.77;;;15.70;;
42760;SDS011;31672;47.638;19.026;2023-01-09T18:54:16;38.43;;;16.10;;
42760;SDS011;31672;47.638;19.026;2023-01-09T18:59:19;42.33;;;18.60;;
42760;SDS011;31672;47.638;19.026;2023-01-09T19:04:22;50.13;;;20.37;;
42760;SDS011;31672;47.638;19.026;2023-01-09T19:09:25;38.60;;;18.73;;
42760;SDS011;31672;47.638;19.026;2023-01-09T19:14:29;37.30;;;16.13;;
42760;SDS011;31672;47.638;19.026;2023-01-09T19:19:32;37.13;;;17.27;;
42760;SDS011;31672;47.638;19.026;2023-01-09T19:24:35;33.23;;;14.50;;
42760;SDS011;31672;47.638;19.026;2023-01-09T19:29:39;29.33;;;14.43;;
42760;SDS011;31672;47.638;19.026;2023-01-09T19:34:41;35.77;;;15.90;;
42760;SDS011;31672;47.638;19.026;2023-01-09T19:39:44;32.93;;;14.77;;
42760;SDS011;31672;47.638;19.026;2023-01-09T19:44:48;34.27;;;16.27;;
42760;SDS011;31672;47.638;19.026;2023-01-09T19:49:51;32.40;;;16.23;;
42760;SDS011;31672;47.638;19.026;2023-01-09T19:54:54;30.03;;;13.63;;
42760;SDS011;31672;47.638;19.026;2023-01-09T19:59:57;33.07;;;14.73;;
42760;SDS011;31672;47.638;19.026;2023-01-09T20:05:00;42.10;;;14.53;;
42760;SDS011;31672;47.638;19.026;2023-01-09T20:10:04;30.40;;;13.57;;
42760;SDS011;31672;47.638;19.026;2023-01-09T20:15:07;32.17;;;13.57;;
42760;SDS011;31672;47.638;19.026;2023-01-09T20:20:16;34.30;;;14.80;;
42760;SDS011;31672;47.638;19.026;2023-01-09T20:25:18;28.07;;;13.13;;
42760;SDS011;31672;47.638;19.026;2023-01-09T20:30:20;37.60;;;17.57;;
42760;SDS011;31672;47.638;19.026;2023-01-09T20:35:23;26.57;;;12.37;;
42760;SDS011;31672;47.638;19.026;2023-01-09T20:40:27;30.10;;;11.63;;
42760;SDS011;31672;47.638;19.026;2023-01-09T20:45:32;31.77;;;11.23;;
42760;SDS011;31672;47.638;19.026;2023-01-09T20:50:36;30.43;;;12.50;;
42760;SDS011;31672;47.638;19.026;2023-01-09T20:55:39;31.37;;;11.03;;
42760;SDS011;31672;47.638;19.026;2023-01-09T21:00:42;25.00;;;11.37;;
42760;SDS011;31672;47.638;19.026;2023-01-09T21:05:46;29.37;;;11.47;;
42760;SDS011;31672;47.638;19.026;2023-01-09T21:10:53;26.33;;;11.20;;
42760;SDS011;31672;47.638;19.026;2023-01-09T21:15:59;25.47;;;10.60;;
42760;SDS011;31672;47.638;19.026;2023-01-09T21:21:12;26.67;;;10.40;;
42760;SDS011;31672;47.638;19.026;2023-01-09T21:26:18;28.40;;;11.40;;
42760;SDS011;31672;47.638;19.026;2023-01-09T21:31:30;21.00;;;9.20;;
42760;SDS011;31672;47.638;19.026;2023-01-09T21:36:36;18.60;;;8.60;;
42760;SDS011;31672;47.638;19.026;2023-01-09T21:41:39;19.37;;;9.00;;
42760;SDS011;31672;47.638;19.026;2023-01-09T21:47:02;19.63;;;9.20;;
42760;SDS011;31672;47.638;19.026;2023-01-09T21:52:05;17.53;;;8.47;;
42760;SDS011;31672;47.638;19.026;2023-01-09T21:57:09;19.53;;;9.03;;
42760;SDS011;31672;47.638;19.026;2023-01-09T22:02:14;21.40;;;9.43;;
42760;SDS011;31672;47.638;19.026;2023-01-09T22:07:17;22.67;;;10.30;;
42760;SDS011;31672;47.638;19.026;2023-01-09T22:12:20;20.80;;;9.77;;
42760;SDS011;31672;47.638;19.026;2023-01-09T22:17:23;20.57;;;8.70;;
42760;SDS011;31672;47.638;19.026;2023-01-09T22:22:26;27.47;;;10.67;;
42760;SDS011;31672;47.638;19.026;2023-01-09T22:27:29;17.37;;;8.17;;
42760;SDS011;31672;47.638;19.026;2023-01-09T22:32:33;16.87;;;7.33;;
42760;SDS011;31672;47.638;19.026;2023-01-09T22:37:36;16.67;;;7.80;;
42760;SDS011;31672;47.638;19.026;2023-01-09T22:42:39;16.40;;;6.73;;
42760;SDS011;31672;47.638;19.026;2023-01-09T22:47:42;13.23;;;7.00;;
42760;SDS011;31672;47.638;19.026;2023-01-09T22:52:46;13.47;;;6.80;;
42760;SDS011;31672;47.638;19.026;2023-01-09T22:57:52;14.70;;;7.03;;
42760;SDS011;31672;47.638;19.026;2023-01-09T23:02:55;14.77;;;6.33;;
42760;SDS011;31672;47.638;19.026;2023-01-09T23:07:58;14.73;;;7.40;;
42760;SDS011;31672;47.638;19.026;2023-01-09T23:13:01;15.90;;;7.43;;
42760;SDS011;31672;47.638;19.026;2023-01-09T23:18:04;21.73;;;8.63;;
42760;SDS011;31672;47.638;19.026;2023-01-09T23:23:08;14.40;;;7.60;;
42760;SDS011;31672;47.638;19.026;2023-01-09T23:28:11;17.40;;;6.87;;
42760;SDS011;31672;47.638;19.026;2023-01-09T23:33:15;16.77;;;7.27;;
42760;SDS011;31672;47.638;19.026;2023-01-09T23:38:18;30.87;;;11.30;;
42760;SDS011;31672;47.638;19.026;2023-01-09T23:43:21;19.77;;;8.67;;
42760;SDS011;31672;47.638;19.026;2023-01-09T23:48:25;16.67;;;8.00;;
42760;SDS011;31672;47.638;19.026;2023-01-09T23:53:27;17.33;;;7.40;;
42760;SDS011;31672;47.638;19.026;2023-01-09T23:58:34;16.37;;;7.07;;
